sensor_id;sensor_type;location;lat;lon;timestamp;pressure;altitude;pressure_sealevel;temperature;humidity
23223;BME280;11780;13.904;100.620;2023-05-13T00:00:28;101073.03;;;31.20;72.10
23223;BME280;11780;13.904;100.620;2023-05-13T00:03:08;101067.50;;;31.20;71.83
23223;BME280;11780;13.904;100.620;2023-05-13T00:05:39;101083.75;;;31.22;71.97
23223;BME280;11780;13.904;100.620;2023-05-13T00:08:09;101085.88;;;31.25;71.27
23223;BME280;11780;13.904;100.620;2023-05-13T00:10:40;101091.72;;;31.23;71.45
23223;BME280;11780;13.904;100.620;2023-05-13T00:13:10;101091.91;;;31.27;71.10
23223;BME280;11780;13.904;100.620;2023-05-13T00:15:41;101090.56;;;31.24;71.25
23223;BME280;11780;13.904;100.620;2023-05-13T00:18:11;101092.88;;;31.31;71.08
23223;BME280;11780;13.904;100.620;2023-05-13T00:20:41;101094.47;;;31.23;71.24
23223;BME280;11780;13.904;100.620;2023-05-13T00:23:12;101083.78;;;31.31;71.27
23223;BME280;11780;13.904;100.620;2023-05-13T00:25:43;101090.28;;;31.26;71.47
23223;BME280;11780;13.904;100.620;2023-05-13T00:28:13;101084.13;;;31.29;71.62
23223;BME280;11780;13.904;100.620;2023-05-13T00:30:44;101082.31;;;31.33;71.57
23223;BME280;11780;13.904;100.620;2023-05-13T00:33:15;101088.69;;;31.34;71.06
23223;BME280;11780;13.904;100.620;2023-05-13T00:35:47;101095.84;;;31.35;71.05
23223;BME280;11780;13.904;100.620;2023-05-13T00:38:17;101106.91;;;31.35;70.85
23223;BME280;11780;13.904;100.620;2023-05-13T00:40:49;101110.16;;;31.37;70.64
23223;BME280;11780;13.904;100.620;2023-05-13T00:43:19;101112.94;;;31.37;70.79
23223;BME280;11780;13.904;100.620;2023-05-13T00:45:51;101108.19;;;31.37;70.40
23223;BME280;11780;13.904;100.620;2023-05-13T00:48:24;101111.47;;;31.39;70.31
23223;BME280;11780;13.904;100.620;2023-05-13T00:50:56;101119.75;;;31.39;70.05
23223;BME280;11780;13.904;100.620;2023-05-13T00:53:26;101124.16;;;31.40;70.08
23223;BME280;11780;13.904;100.620;2023-05-13T00:55:56;101132.94;;;31.42;69.87
23223;BME280;11780;13.904;100.620;2023-05-13T00:58:27;101133.44;;;31.44;69.86
23223;BME280;11780;13.904;100.620;2023-05-13T01:06:51;101151.97;;;31.44;69.66
23223;BME280;11780;13.904;100.620;2023-05-13T01:12:07;101149.72;;;31.46;69.65
23223;BME280;11780;13.904;100.620;2023-05-13T01:14:44;101145.31;;;31.45;69.79
23223;BME280;11780;13.904;100.620;2023-05-13T01:17:25;101138.66;;;31.46;69.62
23223;BME280;11780;13.904;100.620;2023-05-13T01:19:59;101136.69;;;31.47;69.64
23223;BME280;11780;13.904;100.620;2023-05-13T01:22:32;101140.41;;;31.42;69.59
23223;BME280;11780;13.904;100.620;2023-05-13T01:25:03;101130.19;;;31.42;69.87
23223;BME280;11780;13.904;100.620;2023-05-13T01:27:34;101133.44;;;31.44;69.85
23223;BME280;11780;13.904;100.620;2023-05-13T01:30:05;101125.47;;;31.43;69.88
23223;BME280;11780;13.904;100.620;2023-05-13T01:32:37;101125.31;;;31.48;70.18
23223;BME280;11780;13.904;100.620;2023-05-13T01:35:10;101124.19;;;31.49;69.97
23223;BME280;11780;13.904;100.620;2023-05-13T01:37:43;101107.91;;;31.48;70.20
23223;BME280;11780;13.904;100.620;2023-05-13T01:40:14;101111.66;;;31.52;70.29
23223;BME280;11780;13.904;100.620;2023-05-13T01:43:04;101110.88;;;31.51;70.56
23223;BME280;11780;13.904;100.620;2023-05-13T01:45:36;101112.16;;;31.54;70.53
23223;BME280;11780;13.904;100.620;2023-05-13T01:48:06;101111.84;;;31.55;70.60
23223;BME280;11780;13.904;100.620;2023-05-13T01:50:46;101105.50;;;31.55;70.69
23223;BME280;11780;13.904;100.620;2023-05-13T01:53:18;101101.91;;;31.54;70.69
23223;BME280;11780;13.904;100.620;2023-05-13T01:55:51;101100.97;;;31.59;70.74
23223;BME280;11780;13.904;100.620;2023-05-13T01:58:22;101107.47;;;31.63;71.02
23223;BME280;11780;13.904;100.620;2023-05-13T02:00:52;101101.94;;;31.63;71.16
23223;BME280;11780;13.904;100.620;2023-05-13T02:03:23;101100.31;;;31.62;71.02
23223;BME280;11780;13.904;100.620;2023-05-13T02:05:53;101097.25;;;31.64;71.49
23223;BME280;11780;13.904;100.620;2023-05-13T02:08:24;101098.88;;;31.65;71.28
23223;BME280;11780;13.904;100.620;2023-05-13T02:10:57;101098.25;;;31.68;71.29
23223;BME280;11780;13.904;100.620;2023-05-13T02:13:28;101104.47;;;31.73;71.21
23223;BME280;11780;13.904;100.620;2023-05-13T02:15:58;101100.88;;;31.73;71.08
23223;BME280;11780;13.904;100.620;2023-05-13T02:18:28;101101.88;;;31.77;70.80
23223;BME280;11780;13.904;100.620;2023-05-13T02:20:59;101099.59;;;31.79;70.82
23223;BME280;11780;13.904;100.620;2023-05-13T02:23:29;101097.97;;;31.78;71.23
23223;BME280;11780;13.904;100.620;2023-05-13T02:26:01;101104.00;;;31.80;71.17
23223;BME280;11780;13.904;100.620;2023-05-13T02:28:31;101094.22;;;31.83;71.02
23223;BME280;11780;13.904;100.620;2023-05-13T02:31:01;101096.19;;;31.82;70.83
23223;BME280;11780;13.904;100.620;2023-05-13T02:33:32;101091.47;;;31.83;70.88
23223;BME280;11780;13.904;100.620;2023-05-13T02:36:02;101095.06;;;31.83;70.81
23223;BME280;11780;13.904;100.620;2023-05-13T02:38:32;101101.06;;;31.85;70.76
23223;BME280;11780;13.904;100.620;2023-05-13T02:41:05;101089.53;;;31.83;70.83
23223;BME280;11780;13.904;100.620;2023-05-13T02:43:36;101096.84;;;31.88;70.60
23223;BME280;11780;13.904;100.620;2023-05-13T02:46:07;101105.66;;;31.90;70.21
23223;BME280;11780;13.904;100.620;2023-05-13T02:48:37;101108.06;;;31.92;69.89
23223;BME280;11780;13.904;100.620;2023-05-13T02:51:07;101096.22;;;31.91;69.54
23223;BME280;11780;13.904;100.620;2023-05-13T02:53:38;101095.88;;;31.93;69.58
23223;BME280;11780;13.904;100.620;2023-05-13T02:56:09;101093.09;;;31.93;69.46
23223;BME280;11780;13.904;100.620;2023-05-13T02:58:39;101093.75;;;31.89;69.42
23223;BME280;11780;13.904;100.620;2023-05-13T03:01:10;101087.25;;;31.94;69.92
23223;BME280;11780;13.904;100.620;2023-05-13T03:03:40;101098.00;;;31.96;69.63
23223;BME280;11780;13.904;100.620;2023-05-13T03:06:10;101097.16;;;31.95;69.97
23223;BME280;11780;13.904;100.620;2023-05-13T03:08:41;101089.06;;;31.99;69.61
23223;BME280;11780;13.904;100.620;2023-05-13T03:11:11;101088.22;;;31.98;69.42
23223;BME280;11780;13.904;100.620;2023-05-13T03:13:41;101081.91;;;31.98;69.60
23223;BME280;11780;13.904;100.620;2023-05-13T03:16:13;101074.25;;;32.03;69.61
23223;BME280;11780;13.904;100.620;2023-05-13T03:18:43;101074.56;;;32.02;70.20
23223;BME280;11780;13.904;100.620;2023-05-13T03:21:16;101074.56;;;32.02;69.88
23223;BME280;11780;13.904;100.620;2023-05-13T03:23:47;101073.75;;;32.01;70.36
23223;BME280;11780;13.904;100.620;2023-05-13T03:26:19;101074.75;;;32.06;69.62
23223;BME280;11780;13.904;100.620;2023-05-13T03:28:50;101063.00;;;32.09;68.61
23223;BME280;11780;13.904;100.620;2023-05-13T03:31:21;101062.03;;;32.04;67.92
23223;BME280;11780;13.904;100.620;2023-05-13T03:33:52;101064.31;;;32.02;69.53
23223;BME280;11780;13.904;100.620;2023-05-13T03:36:24;101059.28;;;32.04;69.10
23223;BME280;11780;13.904;100.620;2023-05-13T03:38:54;101044.81;;;32.08;68.06
23223;BME280;11780;13.904;100.620;2023-05-13T03:41:25;101040.06;;;32.08;68.70
23223;BME280;11780;13.904;100.620;2023-05-13T03:43:58;101035.66;;;32.07;68.65
23223;BME280;11780;13.904;100.620;2023-05-13T03:46:29;101032.41;;;32.05;68.14
23223;BME280;11780;13.904;100.620;2023-05-13T03:48:59;101036.16;;;32.09;68.42
23223;BME280;11780;13.904;100.620;2023-05-13T03:51:30;101031.44;;;32.10;69.12
23223;BME280;11780;13.904;100.620;2023-05-13T03:54:01;101019.56;;;32.09;68.15
23223;BME280;11780;13.904;100.620;2023-05-13T03:56:32;101022.16;;;32.14;68.10
23223;BME280;11780;13.904;100.620;2023-05-13T03:59:02;101015.81;;;32.14;67.56
23223;BME280;11780;13.904;100.620;2023-05-13T04:01:35;100999.34;;;32.17;67.26
23223;BME280;11780;13.904;100.620;2023-05-13T04:04:05;101000.19;;;32.18;67.05
23223;BME280;11780;13.904;100.620;2023-05-13T04:06:35;100998.41;;;32.13;68.13
23223;BME280;11780;13.904;100.620;2023-05-13T04:09:05;100997.25;;;32.14;67.98
23223;BME280;11780;13.904;100.620;2023-05-13T04:11:36;100993.16;;;32.20;66.64
23223;BME280;11780;13.904;100.620;2023-05-13T04:14:06;100997.72;;;32.16;67.85
23223;BME280;11780;13.904;100.620;2023-05-13T04:16:36;100985.06;;;32.15;67.81
23223;BME280;11780;13.904;100.620;2023-05-13T04:19:07;100988.28;;;32.17;67.48
23223;BME280;11780;13.904;100.620;2023-05-13T04:21:38;100990.75;;;32.19;67.09
23223;BME280;11780;13.904;100.620;2023-05-13T04:24:08;100992.38;;;32.20;67.07
23223;BME280;11780;13.904;100.620;2023-05-13T04:26:38;100979.81;;;32.23;66.08
23223;BME280;11780;13.904;100.620;2023-05-13T04:29:09;100975.44;;;32.22;67.44
23223;BME280;11780;13.904;100.620;2023-05-13T04:31:40;100974.94;;;32.19;67.33
23223;BME280;11780;13.904;100.620;2023-05-13T04:34:12;100977.72;;;32.19;67.53
23223;BME280;11780;13.904;100.620;2023-05-13T04:36:43;100975.44;;;32.22;67.09
23223;BME280;11780;13.904;100.620;2023-05-13T04:39:15;100970.38;;;32.24;66.65
23223;BME280;11780;13.904;100.620;2023-05-13T04:41:45;100966.47;;;32.25;67.08
23223;BME280;11780;13.904;100.620;2023-05-13T04:44:16;100951.53;;;32.26;66.44
23223;BME280;11780;13.904;100.620;2023-05-13T04:46:46;100952.31;;;32.26;65.73
23223;BME280;11780;13.904;100.620;2023-05-13T04:49:17;100951.53;;;32.26;66.37
23223;BME280;11780;13.904;100.620;2023-05-13T04:51:47;100941.44;;;32.30;66.05
23223;BME280;11780;13.904;100.620;2023-05-13T04:54:19;100934.75;;;32.31;65.32
23223;BME280;11780;13.904;100.620;2023-05-13T04:56:50;100933.78;;;32.27;66.48
23223;BME280;11780;13.904;100.620;2023-05-13T04:59:20;100931.81;;;32.27;66.19
23223;BME280;11780;13.904;100.620;2023-05-13T05:01:51;100916.19;;;32.31;64.55
23223;BME280;11780;13.904;100.620;2023-05-13T05:04:21;100917.81;;;32.32;64.82
23223;BME280;11780;13.904;100.620;2023-05-13T05:06:52;100923.00;;;32.34;64.36
23223;BME280;11780;13.904;100.620;2023-05-13T05:09:23;100915.66;;;32.38;63.96
23223;BME280;11780;13.904;100.620;2023-05-13T05:11:53;100905.25;;;32.35;65.13
23223;BME280;11780;13.904;100.620;2023-05-13T05:14:26;100905.25;;;32.35;64.65
23223;BME280;11780;13.904;100.620;2023-05-13T05:16:57;100906.88;;;32.36;64.26
23223;BME280;11780;13.904;100.620;2023-05-13T05:19:28;100901.16;;;32.41;64.03
23223;BME280;11780;13.904;100.620;2023-05-13T05:21:58;100888.97;;;32.42;63.51
23223;BME280;11780;13.904;100.620;2023-05-13T05:24:29;100887.47;;;32.45;62.40
23223;BME280;11780;13.904;100.620;2023-05-13T05:27:00;100888.31;;;32.45;62.15
23223;BME280;11780;13.904;100.620;2023-05-13T05:29:31;100885.19;;;32.47;62.53
23223;BME280;11780;13.904;100.620;2023-05-13T05:32:02;100891.53;;;32.47;62.64
23223;BME280;11780;13.904;100.620;2023-05-13T05:34:32;100881.28;;;32.48;62.40
23223;BME280;11780;13.904;100.620;2023-05-13T05:37:03;100882.75;;;32.45;62.91
23223;BME280;11780;13.904;100.620;2023-05-13T05:39:36;100880.94;;;32.49;62.69
23223;BME280;11780;13.904;100.620;2023-05-13T05:42:07;100883.69;;;32.49;62.71
23223;BME280;11780;13.904;100.620;2023-05-13T05:44:37;100880.44;;;32.47;63.03
23223;BME280;11780;13.904;100.620;2023-05-13T05:47:07;100882.06;;;32.48;62.50
23223;BME280;11780;13.904;100.620;2023-05-13T05:49:37;100875.88;;;32.52;62.38
23223;BME280;11780;13.904;100.620;2023-05-13T05:52:08;100876.38;;;32.54;62.34
23223;BME280;11780;13.904;100.620;2023-05-13T05:54:40;100871.47;;;32.50;62.51
23223;BME280;11780;13.904;100.620;2023-05-13T05:57:10;100859.28;;;32.52;62.56
23223;BME280;11780;13.904;100.620;2023-05-13T05:59:40;100856.34;;;32.48;62.91
23223;BME280;11780;13.904;100.620;2023-05-13T06:02:12;100848.19;;;32.52;62.01
23223;BME280;11780;13.904;100.620;2023-05-13T06:04:43;100837.59;;;32.54;62.07
23223;BME280;11780;13.904;100.620;2023-05-13T06:07:14;100835.97;;;32.53;61.96
23223;BME280;11780;13.904;100.620;2023-05-13T06:09:45;100821.66;;;32.50;62.19
23223;BME280;11780;13.904;100.620;2023-05-13T06:12:15;100825.38;;;32.55;61.87
23223;BME280;11780;13.904;100.620;2023-05-13T06:14:45;100827.00;;;32.56;61.30
23223;BME280;11780;13.904;100.620;2023-05-13T06:17:16;100817.88;;;32.55;61.28
23223;BME280;11780;13.904;100.620;2023-05-13T06:19:46;100822.25;;;32.56;61.26
23223;BME280;11780;13.904;100.620;2023-05-13T06:22:17;100818.84;;;32.59;60.74
23223;BME280;11780;13.904;100.620;2023-05-13T06:24:47;100816.56;;;32.61;60.25
23223;BME280;11780;13.904;100.620;2023-05-13T06:27:17;100807.91;;;32.63;60.00
23223;BME280;11780;13.904;100.620;2023-05-13T06:29:48;100807.44;;;32.61;60.44
23223;BME280;11780;13.904;100.620;2023-05-13T06:32:18;100798.00;;;32.62;59.99
23223;BME280;11780;13.904;100.620;2023-05-13T06:34:49;100796.38;;;32.61;60.17
23223;BME280;11780;13.904;100.620;2023-05-13T06:37:23;100790.81;;;32.61;60.28
23223;BME280;11780;13.904;100.620;2023-05-13T06:39:53;100802.22;;;32.59;60.42
23223;BME280;11780;13.904;100.620;2023-05-13T06:42:23;100782.16;;;32.62;59.53
23223;BME280;11780;13.904;100.620;2023-05-13T06:44:58;100777.91;;;32.65;59.28
23223;BME280;11780;13.904;100.620;2023-05-13T06:47:28;100782.31;;;32.66;59.17
23223;BME280;11780;13.904;100.620;2023-05-13T06:50:05;100758.22;;;32.67;58.52
23223;BME280;11780;13.904;100.620;2023-05-13T06:52:36;100766.16;;;32.68;58.53
23223;BME280;11780;13.904;100.620;2023-05-13T06:55:08;100753.94;;;32.69;58.75
23223;BME280;11780;13.904;100.620;2023-05-13T06:57:39;100758.00;;;32.72;58.18
23223;BME280;11780;13.904;100.620;2023-05-13T07:00:10;100752.13;;;32.73;58.21
23223;BME280;11780;13.904;100.620;2023-05-13T07:02:41;100753.28;;;32.72;58.26
23223;BME280;11780;13.904;100.620;2023-05-13T07:05:11;100749.38;;;32.73;58.14
23223;BME280;11780;13.904;100.620;2023-05-13T07:07:42;100741.53;;;32.75;58.06
23223;BME280;11780;13.904;100.620;2023-05-13T07:10:12;100734.03;;;32.76;58.14
23223;BME280;11780;13.904;100.620;2023-05-13T07:12:42;100721.97;;;32.72;58.54
23223;BME280;11780;13.904;100.620;2023-05-13T07:15:12;100719.03;;;32.77;58.19
23223;BME280;11780;13.904;100.620;2023-05-13T07:17:43;100720.31;;;32.79;58.26
23223;BME280;11780;13.904;100.620;2023-05-13T07:20:13;100710.84;;;32.80;58.26
23223;BME280;11780;13.904;100.620;2023-05-13T07:22:44;100711.69;;;32.81;58.13
23223;BME280;11780;13.904;100.620;2023-05-13T07:25:14;100702.72;;;32.84;58.11
23223;BME280;11780;13.904;100.620;2023-05-13T07:27:44;100700.75;;;32.85;58.17
23223;BME280;11780;13.904;100.620;2023-05-13T07:30:15;100696.81;;;32.86;58.15
23223;BME280;11780;13.904;100.620;2023-05-13T07:32:45;100689.00;;;32.88;58.04
23223;BME280;11780;13.904;100.620;2023-05-13T07:35:18;100673.16;;;32.88;57.98
23223;BME280;11780;13.904;100.620;2023-05-13T07:37:48;100673.88;;;32.85;58.22
23223;BME280;11780;13.904;100.620;2023-05-13T07:40:19;100667.63;;;32.88;58.05
23223;BME280;11780;13.904;100.620;2023-05-13T07:42:50;100660.63;;;32.91;57.97
23223;BME280;11780;13.904;100.620;2023-05-13T07:45:21;100660.63;;;32.91;58.06
23223;BME280;11780;13.904;100.620;2023-05-13T07:47:51;100647.56;;;32.91;58.46
23223;BME280;11780;13.904;100.620;2023-05-13T07:50:22;100643.53;;;32.89;58.67
23223;BME280;11780;13.904;100.620;2023-05-13T07:52:52;100644.31;;;32.89;58.89
23223;BME280;11780;13.904;100.620;2023-05-13T07:55:22;100642.84;;;32.92;58.88
23223;BME280;11780;13.904;100.620;2023-05-13T07:57:53;100636.59;;;32.95;58.73
23223;BME280;11780;13.904;100.620;2023-05-13T08:00:23;100638.94;;;32.93;59.04
23223;BME280;11780;13.904;100.620;2023-05-13T08:02:54;100636.47;;;32.91;59.16
23223;BME280;11780;13.904;100.620;2023-05-13T08:05:24;100634.66;;;32.95;58.96
23223;BME280;11780;13.904;100.620;2023-05-13T08:07:55;100632.22;;;32.94;59.29
23223;BME280;11780;13.904;100.620;2023-05-13T08:10:25;100630.63;;;32.93;59.16
23223;BME280;11780;13.904;100.620;2023-05-13T08:12:56;100636.59;;;32.95;59.01
23223;BME280;11780;13.904;100.620;2023-05-13T08:15:27;100639.84;;;32.97;58.82
23223;BME280;11780;13.904;100.620;2023-05-13T08:17:57;100640.50;;;32.94;58.90
23223;BME280;11780;13.904;100.620;2023-05-13T08:20:27;100639.38;;;32.95;58.98
23223;BME280;11780;13.904;100.620;2023-05-13T08:22:58;100630.63;;;32.93;58.99
23223;BME280;11780;13.904;100.620;2023-05-13T08:25:30;100619.97;;;32.95;59.28
23223;BME280;11780;13.904;100.620;2023-05-13T08:28:01;100613.53;;;32.91;59.42
23223;BME280;11780;13.904;100.620;2023-05-13T08:30:32;100619.97;;;32.95;59.18
23223;BME280;11780;13.904;100.620;2023-05-13T08:33:03;100625.66;;;32.99;59.30
23223;BME280;11780;13.904;100.620;2023-05-13T08:35:35;100614.91;;;32.97;59.48
23223;BME280;11780;13.904;100.620;2023-05-13T08:38:05;100608.69;;;33.00;59.43
23223;BME280;11780;13.904;100.620;2023-05-13T08:40:35;100608.34;;;33.02;59.39
23223;BME280;11780;13.904;100.620;2023-05-13T08:43:07;100604.41;;;33.03;59.29
23223;BME280;11780;13.904;100.620;2023-05-13T08:45:41;100598.06;;;33.02;59.53
23223;BME280;11780;13.904;100.620;2023-05-13T08:48:15;100601.19;;;33.01;59.39
23223;BME280;11780;13.904;100.620;2023-05-13T08:50:46;100600.03;;;33.02;59.45
23223;BME280;11780;13.904;100.620;2023-05-13T08:53:16;100597.41;;;33.05;59.22
23223;BME280;11780;13.904;100.620;2023-05-13T08:55:48;100599.00;;;33.06;59.33
23223;BME280;11780;13.904;100.620;2023-05-13T08:58:19;100598.19;;;33.06;59.25
23223;BME280;11780;13.904;100.620;2023-05-13T09:00:51;100590.69;;;33.06;59.16
23223;BME280;11780;13.904;100.620;2023-05-13T09:03:23;100593.81;;;33.05;59.14
23223;BME280;11780;13.904;100.620;2023-05-13T09:06:02;100594.28;;;33.07;58.89
23223;BME280;11780;13.904;100.620;2023-05-13T09:08:32;100590.91;;;33.01;59.22
23223;BME280;11780;13.904;100.620;2023-05-13T09:11:03;100593.69;;;33.01;59.17
23223;BME280;11780;13.904;100.620;2023-05-13T09:13:33;100587.94;;;33.06;59.08
23223;BME280;11780;13.904;100.620;2023-05-13T09:16:05;100590.34;;;33.08;58.88
23223;BME280;11780;13.904;100.620;2023-05-13T09:18:36;100583.19;;;33.07;58.83
23223;BME280;11780;13.904;100.620;2023-05-13T09:21:25;100578.91;;;33.09;58.67
23223;BME280;11780;13.904;100.620;2023-05-13T09:24:13;100588.16;;;33.14;58.37
23223;BME280;11780;13.904;100.620;2023-05-13T09:26:53;100590.81;;;33.10;58.54
23223;BME280;11780;13.904;100.620;2023-05-13T09:29:25;100581.69;;;33.09;58.55
23223;BME280;11780;13.904;100.620;2023-05-13T09:32:05;100582.88;;;33.08;58.50
23223;BME280;11780;13.904;100.620;2023-05-13T09:34:36;100584.13;;;33.11;58.51
23223;BME280;11780;13.904;100.620;2023-05-13T09:37:07;100582.16;;;33.12;58.23
23223;BME280;11780;13.904;100.620;2023-05-13T09:39:38;100582.16;;;33.12;58.19
23223;BME280;11780;13.904;100.620;2023-05-13T09:42:15;100592.78;;;33.09;58.13
23223;BME280;11780;13.904;100.620;2023-05-13T09:44:46;100599.00;;;33.06;58.18
23223;BME280;11780;13.904;100.620;2023-05-13T09:47:18;100592.78;;;33.09;58.08
23223;BME280;11780;13.904;100.620;2023-05-13T09:49:54;100598.56;;;33.04;58.26
23223;BME280;11780;13.904;100.620;2023-05-13T09:52:25;100595.78;;;33.04;58.13
23223;BME280;11780;13.904;100.620;2023-05-13T09:54:59;100600.63;;;33.07;57.92
23223;BME280;11780;13.904;100.620;2023-05-13T09:57:30;100589.31;;;33.13;57.88
23223;BME280;11780;13.904;100.620;2023-05-13T10:00:03;100588.53;;;33.12;57.78
23223;BME280;11780;13.904;100.620;2023-05-13T10:02:59;100585.75;;;33.12;57.71
23223;BME280;11780;13.904;100.620;2023-05-13T10:05:40;100589.31;;;33.13;57.81
23223;BME280;11780;13.904;100.620;2023-05-13T10:08:12;100581.94;;;33.17;57.47
23223;BME280;11780;13.904;100.620;2023-05-13T10:10:44;100587.47;;;33.17;57.60
23223;BME280;11780;13.904;100.620;2023-05-13T10:13:17;100579.84;;;33.14;57.70
23223;BME280;11780;13.904;100.620;2023-05-13T10:15:53;100590.63;;;33.15;57.76
23223;BME280;11780;13.904;100.620;2023-05-13T10:18:24;100587.97;;;33.19;57.53
23223;BME280;11780;13.904;100.620;2023-05-13T10:20:55;100581.59;;;33.18;57.58
23223;BME280;11780;13.904;100.620;2023-05-13T10:23:27;100580.78;;;33.18;57.58
23223;BME280;11780;13.904;100.620;2023-05-13T10:25:58;100575.94;;;33.15;57.74
23223;BME280;11780;13.904;100.620;2023-05-13T10:28:28;100582.31;;;33.15;57.55
23223;BME280;11780;13.904;100.620;2023-05-13T10:31:00;100591.75;;;33.14;57.56
23223;BME280;11780;13.904;100.620;2023-05-13T10:33:31;100582.88;;;33.08;57.62
23223;BME280;11780;13.904;100.620;2023-05-13T10:38:39;100588.84;;;33.10;57.80
23223;BME280;11780;13.904;100.620;2023-05-13T10:41:33;100593.59;;;33.10;57.65
23223;BME280;11780;13.904;100.620;2023-05-13T10:44:09;100596.72;;;33.08;57.82
23223;BME280;11780;13.904;100.620;2023-05-13T10:46:41;100592.44;;;33.11;57.62
23223;BME280;11780;13.904;100.620;2023-05-13T10:49:13;100597.50;;;33.09;57.58
23223;BME280;11780;13.904;100.620;2023-05-13T10:51:47;100590.47;;;33.12;57.70
23223;BME280;11780;13.904;100.620;2023-05-13T10:54:19;100603.53;;;33.11;57.38
23223;BME280;11780;13.904;100.620;2023-05-13T10:56:57;100607.56;;;33.14;57.38
23223;BME280;11780;13.904;100.620;2023-05-13T10:59:27;100618.19;;;33.12;57.49
23223;BME280;11780;13.904;100.620;2023-05-13T11:02:22;100618.31;;;33.15;57.29
23223;BME280;11780;13.904;100.620;2023-05-13T11:04:59;100638.06;;;33.14;57.37
23223;BME280;11780;13.904;100.620;2023-05-13T11:07:30;100640.13;;;33.17;57.53
23223;BME280;11780;13.904;100.620;2023-05-13T11:10:00;100636.44;;;33.13;57.58
23223;BME280;11780;13.904;100.620;2023-05-13T11:12:30;100628.78;;;33.09;57.77
23223;BME280;11780;13.904;100.620;2023-05-13T11:15:02;100634.34;;;33.09;57.92
23223;BME280;11780;13.904;100.620;2023-05-13T11:17:52;100644.97;;;33.07;58.04
23223;BME280;11780;13.904;100.620;2023-05-13T11:20:23;100651.31;;;33.08;58.24
23223;BME280;11780;13.904;100.620;2023-05-13T11:22:53;100653.28;;;33.07;58.38
23223;BME280;11780;13.904;100.620;2023-05-13T11:25:26;100657.88;;;33.03;58.39
23223;BME280;11780;13.904;100.620;2023-05-13T11:27:57;100654.75;;;33.05;58.30
23223;BME280;11780;13.904;100.620;2023-05-13T11:30:27;100652.34;;;33.03;58.58
23223;BME280;11780;13.904;100.620;2023-05-13T11:32:58;100665.06;;;33.04;58.56
23223;BME280;11780;13.904;100.620;2023-05-13T11:35:32;100666.19;;;33.03;58.38
23223;BME280;11780;13.904;100.620;2023-05-13T11:38:02;100679.59;;;33.01;58.56
23223;BME280;11780;13.904;100.620;2023-05-13T11:40:34;100682.34;;;33.01;58.56
23223;BME280;11780;13.904;100.620;2023-05-13T11:43:07;100691.00;;;33.00;58.83
23223;BME280;11780;13.904;100.620;2023-05-13T11:45:38;100691.34;;;32.98;58.60
23223;BME280;11780;13.904;100.620;2023-05-13T11:48:19;100710.72;;;32.98;58.93
23223;BME280;11780;13.904;100.620;2023-05-13T11:50:51;100714.66;;;32.97;59.15
23223;BME280;11780;13.904;100.620;2023-05-13T11:53:22;100714.66;;;32.97;59.12
23223;BME280;11780;13.904;100.620;2023-05-13T11:55:52;100721.69;;;32.94;59.40
23223;BME280;11780;13.904;100.620;2023-05-13T11:58:24;100740.25;;;32.94;59.29
23223;BME280;11780;13.904;100.620;2023-05-13T12:00:54;100731.94;;;32.94;59.44
23223;BME280;11780;13.904;100.620;2023-05-13T12:03:26;100733.13;;;32.93;59.85
23223;BME280;11780;13.904;100.620;2023-05-13T12:06:02;100744.22;;;32.93;59.83
23223;BME280;11780;13.904;100.620;2023-05-13T12:08:34;100758.72;;;32.90;59.79
23223;BME280;11780;13.904;100.620;2023-05-13T12:11:12;100758.72;;;32.90;59.81
23223;BME280;11780;13.904;100.620;2023-05-13T12:13:42;100765.91;;;32.91;60.03
23223;BME280;11780;13.904;100.620;2023-05-13T12:16:12;100780.06;;;32.89;60.04
23223;BME280;11780;13.904;100.620;2023-05-13T12:18:54;100783.66;;;32.90;59.95
23223;BME280;11780;13.904;100.620;2023-05-13T12:21:30;100792.28;;;32.88;60.13
23223;BME280;11780;13.904;100.620;2023-05-13T12:24:01;100803.38;;;32.88;60.08
23223;BME280;11780;13.904;100.620;2023-05-13T12:26:31;100800.94;;;32.87;60.11
23223;BME280;11780;13.904;100.620;2023-05-13T12:29:01;100807.28;;;32.87;60.03
23223;BME280;11780;13.904;100.620;2023-05-13T12:31:32;100811.19;;;32.86;60.22
23223;BME280;11780;13.904;100.620;2023-05-13T12:34:02;100820.47;;;32.90;60.23
23223;BME280;11780;13.904;100.620;2023-05-13T12:36:38;100820.81;;;32.89;60.23
23223;BME280;11780;13.904;100.620;2023-05-13T12:39:09;100824.75;;;32.88;60.27
23223;BME280;11780;13.904;100.620;2023-05-13T12:41:41;100828.31;;;32.88;60.25
23223;BME280;11780;13.904;100.620;2023-05-13T12:44:14;100840.53;;;32.87;60.40
23223;BME280;11780;13.904;100.620;2023-05-13T12:46:51;100845.63;;;32.85;60.73
23223;BME280;11780;13.904;100.620;2023-05-13T12:49:22;100850.81;;;32.87;61.08
23223;BME280;11780;13.904;100.620;2023-05-13T12:51:53;100866.78;;;32.90;60.91
23223;BME280;11780;13.904;100.620;2023-05-13T12:54:24;100864.81;;;32.90;61.04
23223;BME280;11780;13.904;100.620;2023-05-13T12:56:55;100866.44;;;32.91;61.41
23223;BME280;11780;13.904;100.620;2023-05-13T12:59:25;100866.84;;;33.02;61.17
23223;BME280;11780;13.904;100.620;2023-05-13T13:01:58;100874.16;;;33.07;61.08
23223;BME280;11780;13.904;100.620;2023-05-13T13:04:28;100875.13;;;33.11;60.85